North Wichita, Kansas
Current Conditions -  °F | °C
As of 9:54 AM on Thursday 29 Jan 2015 (Local Time) from KAAO Reporting Station
Overcast Overcast  
Wind Chill:   Ceiling: 3000
Heat Index:   Visibility: 10mi
Dew Point: -2°   Wind: 25mph
Humidity: 58%   Direction: 350°N
Pressure: 30.41"   Gusts: 35mph
Location:  37.7735°N, 97.3663°W
Report Text: KAAO 291554Z AUTO 35022G30KT 10SM OVC030 06/M02 A3041 RMK AO2 PK WND 35031/1536 SLP299 T00561022
Loading
Personal Weather Stations






























Interactive Weather Map New forecast layout! Learn more

10-Day Weather Forecast

Advertisements
Track Severe Weather on mobile